Time;durP1;ratioP1;P1;durP2;ratioP2;P2;SDS_P1;SDS_P2;PMS_P1;PMS_P2;Temp;Humidity;BMP_temperature;BMP_pressure;BME280_temperature;BME280_humidity;BME280_pressure;Samples;Min_cycle;Max_cycle;Signal;HPM_P1;HPM_P2
2023/12/11 00:02:23;;;;;;;3.63;1.70;;;;;;;8.32;69.29;99273.13;5032999;27;98738;-55
2023/12/11 00:04:49;;;;;;;1.83;1.60;;;;;;;8.36;69.27;99270.81;5028197;27;97052;-57
2023/12/11 00:07:14;;;;;;;4.17;1.40;;;;;;;8.40;69.45;99271.94;5028975;27;97166;-56
2023/12/11 00:09:40;;;;;;;5.90;1.60;;;;;;;8.44;69.47;99266.13;5030868;27;97317;-56
2023/12/11 00:12:05;;;;;;;5.43;1.47;;;;;;;8.47;69.56;99279.56;5027279;27;97342;-56
2023/12/11 00:14:31;;;;;;;4.90;1.70;;;;;;;8.50;69.54;99281.25;5029063;27;97151;-56
2023/12/11 00:16:56;;;;;;;5.70;1.80;;;;;;;8.52;69.70;99278.72;5027528;27;97082;-56
2023/12/11 00:19:21;;;;;;;6.43;1.50;;;;;;;8.54;69.69;99276.16;5009263;27;96775;-56
2023/12/11 00:21:47;;;;;;;5.70;1.40;;;;;;;8.55;69.73;99276.91;5029534;27;97325;-56
2023/12/11 00:24:12;;;;;;;4.30;1.30;;;;;;;8.60;69.54;99275.28;5024957;27;97232;-56
2023/12/11 00:26:38;;;;;;;6.73;1.43;;;;;;;8.62;69.63;99275.50;5027503;27;97017;-56
2023/12/11 00:29:04;;;;;;;6.90;1.83;;;;;;;8.65;69.53;99280.66;5025927;27;97015;-55
2023/12/11 00:31:29;;;;;;;4.00;1.33;;;;;;;8.68;69.62;99289.88;5026352;27;97965;-56
2023/12/11 00:33:54;;;;;;;7.00;1.50;;;;;;;8.70;69.61;99281.81;5027480;27;97736;-55
2023/12/11 00:36:20;;;;;;;6.90;1.43;;;;;;;8.72;69.48;99290.28;5027036;27;96666;-55
2023/12/11 00:38:45;;;;;;;7.97;1.80;;;;;;;8.74;69.55;99304.28;5029890;27;96992;-54
2023/12/11 00:41:10;;;;;;;4.47;1.40;;;;;;;8.73;69.48;99292.50;5023195;27;97340;-55
2023/12/11 00:43:36;;;;;;;4.87;1.47;;;;;;;8.74;69.49;99293.25;5024208;27;97516;-54
2023/12/11 00:46:01;;;;;;;6.60;1.70;;;;;;;8.75;69.56;99300.25;5027800;27;97173;-54
2023/12/11 00:48:27;;;;;;;7.90;2.20;;;;;;;8.77;69.57;99314.25;5026886;27;96889;-54
2023/12/11 00:50:52;;;;;;;12.90;2.23;;;;;;;8.80;69.60;99321.44;5032269;27;97098;-54
2023/12/11 00:53:17;;;;;;;6.87;1.73;;;;;;;8.80;69.67;99319.41;5034957;27;97011;-54
2023/12/11 00:55:43;;;;;;;14.23;1.80;;;;;;;8.80;69.60;99322.19;5032366;27;96910;-54
2023/12/11 00:58:09;;;;;;;9.33;2.17;;;;;;;8.82;69.40;99321.66;5033246;27;96603;-54
2023/12/11 01:00:34;;;;;;;7.47;1.67;;;;;;;8.82;69.46;99316.88;5030033;27;97517;-54
2023/12/11 01:02:59;;;;;;;8.93;1.87;;;;;;;8.83;69.64;99331.41;5030957;27;98036;-54
2023/12/11 01:05:25;;;;;;;6.07;2.20;;;;;;;8.83;69.54;99325.88;5028256;27;97083;-54
2023/12/11 01:07:50;;;;;;;8.67;2.00;;;;;;;8.85;69.36;99334.38;5029518;27;96688;-55
2023/12/11 01:10:16;;;;;;;5.40;1.50;;;;;;;8.86;69.44;99333.09;5031878;27;97479;-55
2023/12/11 01:12:42;;;;;;;7.77;2.23;;;;;;;8.86;69.47;99339.34;5030040;27;97137;-54
2023/12/11 01:15:08;;;;;;;7.93;2.67;;;;;;;8.86;69.53;99342.09;5027511;27;97124;-54
2023/12/11 01:17:33;;;;;;;8.73;1.63;;;;;;;8.89;69.37;99341.03;5032930;27;97129;-54
2023/12/11 01:19:58;;;;;;;8.70;2.07;;;;;;;8.91;69.39;99357.03;5032060;27;97231;-54
2023/12/11 01:22:24;;;;;;;9.10;2.60;;;;;;;8.93;69.49;99365.50;5031238;27;96753;-54
2023/12/11 01:24:49;;;;;;;8.03;1.70;;;;;;;8.94;69.47;99369.75;5027075;27;96876;-54
2023/12/11 01:27:14;;;;;;;11.63;2.33;;;;;;;8.96;69.18;99369.97;5030618;27;99255;-54
2023/12/11 01:29:40;;;;;;;12.83;2.40;;;;;;;8.97;69.12;99371.47;5035058;27;98278;-54
2023/12/11 01:32:05;;;;;;;8.80;2.73;;;;;;;8.95;69.28;99371.97;5029503;27;99812;-54
2023/12/11 01:34:31;;;;;;;7.80;1.63;;;;;;;8.99;69.28;99382.69;5030151;27;97327;-54
2023/12/11 01:36:56;;;;;;;9.90;2.70;;;;;;;8.97;68.90;99377.69;5030932;27;97828;-55
2023/12/11 01:39:21;;;;;;;7.10;2.50;;;;;;;8.98;69.18;99390.22;5029904;27;97060;-54
2023/12/11 01:41:47;;;;;;;9.20;2.70;;;;;;;8.99;69.23;99393.72;5032470;27;97591;-55
2023/12/11 01:44:12;;;;;;;8.13;1.40;;;;;;;8.96;69.11;99401.06;5028904;27;97100;-55
2023/12/11 01:46:38;;;;;;;12.27;2.50;;;;;;;8.97;69.10;99402.53;5032296;27;96984;-54
2023/12/11 01:49:04;;;;;;;13.53;2.30;;;;;;;8.99;68.87;99410.28;5030417;27;97297;-54
2023/12/11 01:51:29;;;;;;;11.97;2.80;;;;;;;8.96;68.97;99414.84;5028342;27;96576;-53
2023/12/11 01:53:55;;;;;;;7.33;1.80;;;;;;;8.98;68.99;99414.31;5031900;27;97080;-54
2023/12/11 01:56:21;;;;;;;13.73;2.60;;;;;;;8.94;68.70;99416.66;5029971;27;96993;-53
2023/12/11 01:58:47;;;;;;;12.23;2.13;;;;;;;8.93;68.69;99420.66;5030126;27;98628;-53
2023/12/11 02:01:14;;;;;;;12.43;2.30;;;;;;;8.92;68.70;99430.97;5029471;27;97808;-53
2023/12/11 02:03:40;;;;;;;13.67;2.50;;;;;;;8.91;68.65;99429.50;5032293;27;96807;-53
2023/12/11 02:06:06;;;;;;;11.50;2.20;;;;;;;8.91;68.97;99429.50;5029166;27;96699;-53
2023/12/11 02:08:32;;;;;;;10.80;2.30;;;;;;;8.94;68.76;99427.69;5031154;27;96593;-52
2023/12/11 02:10:57;;;;;;;11.43;2.60;;;;;;;8.96;68.99;99431.41;5031748;27;96758;-54
2023/12/11 02:13:22;;;;;;;15.20;2.77;;;;;;;8.98;68.63;99428.84;5030260;27;96677;-53
2023/12/11 02:15:50;;;;;;;13.70;2.77;;;;;;;9.00;68.61;99420.03;5034324;27;97049;-53
2023/12/11 02:18:19;;;;;;;7.60;2.40;;;;;;;9.01;68.61;99427.78;5027535;27;96915;-54
2023/12/11 02:20:45;;;;;;;10.70;2.03;;;;;;;9.04;68.65;99425.94;5029438;27;96879;-52
2023/12/11 02:23:29;;;;;;;8.10;2.37;;;;;;;9.04;68.24;99437.72;5031754;27;97129;-53
2023/12/11 02:26:07;;;;;;;9.57;2.60;;;;;;;9.05;68.38;99436.47;5030023;27;97429;-54
2023/12/11 02:28:32;;;;;;;12.80;3.03;;;;;;;9.06;68.58;99428.91;5027828;27;97829;-53
2023/12/11 02:30:57;;;;;;;12.23;2.70;;;;;;;9.07;68.50;99438.69;5027468;27;97513;-53
2023/12/11 02:33:23;;;;;;;12.83;2.50;;;;;;;9.07;68.67;99427.66;5030592;27;97058;-53
2023/12/11 02:35:48;;;;;;;10.33;2.50;;;;;;;9.10;68.33;99429.34;5031615;27;97212;-54
2023/12/11 02:38:13;;;;;;;7.40;2.40;;;;;;;9.12;68.41;99435.06;5028939;27;96955;-53
2023/12/11 02:40:39;;;;;;;14.07;2.63;;;;;;;9.13;68.29;99436.53;5031182;27;96601;-53
2023/12/11 02:43:04;;;;;;;11.43;2.87;;;;;;;9.14;68.29;99438.03;5029974;27;96709;-53
2023/12/11 02:45:30;;;;;;;9.30;2.43;;;;;;;9.12;68.20;99433.03;5029240;27;97256;-53
2023/12/11 02:48:02;;;;;;;15.07;3.47;;;;;;;9.13;68.21;99431.00;5028794;27;97075;-53
2023/12/11 02:50:31;;;;;;;11.70;2.90;;;;;;;9.14;68.07;99429.75;5028613;27;97727;-53
2023/12/11 02:52:57;;;;;;;8.27;2.70;;;;;;;9.14;68.17;99430.50;5027108;27;97020;-53
2023/12/11 02:55:22;;;;;;;10.90;3.33;;;;;;;9.15;68.26;99439.50;5025926;27;96866;-53
2023/12/11 02:57:48;;;;;;;6.63;2.13;;;;;;;9.14;68.17;99427.00;5028923;27;96939;-53
2023/12/11 03:00:13;;;;;;;7.93;2.40;;;;;;;9.14;68.37;99429.75;5029423;27;97712;-53
2023/12/11 03:02:39;;;;;;;8.30;2.50;;;;;;;9.16;68.27;99424.44;5027713;27;96926;-53
2023/12/11 03:05:06;;;;;;;8.83;2.30;;;;;;;9.14;68.04;99432.50;5027306;27;96835;-52
2023/12/11 03:07:31;;;;;;;10.70;2.23;;;;;;;9.14;68.04;99424.22;5026076;27;97499;-52
2023/12/11 03:09:56;;;;;;;7.50;2.50;;;;;;;9.13;68.15;99417.97;5029028;27;98832;-54
2023/12/11 03:12:22;;;;;;;12.93;3.10;;;;;;;9.13;68.12;99417.97;5026839;27;99125;-53
2023/12/11 03:14:47;;;;;;;11.77;2.67;;;;;;;9.13;68.12;99425.50;5026512;27;97529;-54
2023/12/11 03:17:12;;;;;;;17.40;3.23;;;;;;;9.12;67.95;99426.78;5031225;27;97075;-52
2023/12/11 03:19:38;;;;;;;10.70;3.27;;;;;;;9.12;68.00;99421.28;5028380;27;97607;-53
2023/12/11 03:22:03;;;;;;;14.20;3.20;;;;;;;9.12;67.89;99416.47;5028584;27;97116;-54
2023/12/11 03:24:29;;;;;;;17.00;4.20;;;;;;;9.15;67.83;99420.19;5029050;27;97188;-54
2023/12/11 03:26:54;;;;;;;11.90;2.50;;;;;;;9.15;67.96;99423.69;5028956;27;97507;-52
2023/12/11 03:29:19;;;;;;;8.93;2.60;;;;;;;9.16;67.66;99416.91;5026470;27;97358;-52
2023/12/11 03:31:45;;;;;;;12.37;3.57;;;;;;;9.16;67.67;99425.19;5028064;27;96558;-54
2023/12/11 03:34:10;;;;;;;16.23;3.20;;;;;;;9.15;67.89;99425.69;5027417;27;97231;-52
2023/12/11 03:36:35;;;;;;;15.97;3.53;;;;;;;9.15;67.79;99420.19;5028218;27;97085;-53
2023/12/11 03:39:01;;;;;;;10.10;2.67;;;;;;;9.16;67.71;99421.69;5027628;27;97083;-53
2023/12/11 03:41:26;;;;;;;13.40;3.70;;;;;;;9.16;67.54;99424.44;5027499;27;97117;-53
2023/12/11 03:43:51;;;;;;;20.93;3.20;;;;;;;9.17;67.56;99415.63;5028238;27;97368;-52
2023/12/11 03:46:17;;;;;;;12.83;2.40;;;;;;;9.17;67.55;99415.63;5027570;27;96919;-53
2023/12/11 03:48:42;;;;;;;8.63;2.23;;;;;;;9.17;67.55;99418.38;5029264;27;97142;-53
2023/12/11 03:51:08;;;;;;;20.13;3.07;;;;;;;9.15;67.75;99404.38;5030059;27;96858;-53
2023/12/11 03:53:33;;;;;;;12.53;2.63;;;;;;;9.14;67.51;99415.97;5027452;27;97084;-52
2023/12/11 03:55:58;;;;;;;13.40;2.73;;;;;;;9.16;67.41;99416.16;5026525;27;97329;-53
2023/12/11 03:58:24;;;;;;;16.60;3.20;;;;;;;9.15;67.43;99414.66;5031019;27;97238;-53
2023/12/11 04:00:49;;;;;;;17.23;3.10;;;;;;;9.14;67.62;99415.97;5029598;27;97272;-53
2023/12/11 04:03:14;;;;;;;23.47;3.17;;;;;;;9.14;67.61;99413.19;5029081;27;97372;-53
2023/12/11 04:05:40;;;;;;;13.70;2.67;;;;;;;9.13;67.57;99414.47;5027249;27;98178;-53
2023/12/11 04:08:05;;;;;;;9.47;2.77;;;;;;;9.14;67.33;99407.69;5028190;27;97726;-53
2023/12/11 04:10:31;;;;;;;13.67;2.30;;;;;;;9.13;67.43;99415.22;5029258;27;96969;-54
2023/12/11 04:12:59;;;;;;;7.80;2.50;;;;;;;9.12;67.45;99402.69;5028153;27;97241;-53
2023/12/11 04:15:25;;;;;;;15.60;3.07;;;;;;;9.11;67.34;99403.22;5027168;27;97264;-53
2023/12/11 04:17:50;;;;;;;12.47;2.93;;;;;;;9.06;67.30;99404.06;5027102;27;97662;-53
2023/12/11 04:20:15;;;;;;;12.83;3.50;;;;;;;9.02;67.42;99404.41;5027282;27;96996;-53
2023/12/11 04:22:41;;;;;;;12.80;2.97;;;;;;;8.97;67.21;99393.53;5029074;27;96771;-53
2023/12/11 04:25:07;;;;;;;15.80;3.33;;;;;;;8.95;67.37;99393.31;5028607;27;97808;-53
2023/12/11 04:27:32;;;;;;;13.27;3.27;;;;;;;8.94;67.44;99391.81;5026526;27;96872;-52
2023/12/11 04:29:57;;;;;;;8.10;2.80;;;;;;;8.92;67.28;99389.63;5025517;27;97197;-52
2023/12/11 04:32:23;;;;;;;14.83;3.00;;;;;;;8.90;67.35;99392.16;5025350;27;96680;-51
2023/12/11 04:34:48;;;;;;;7.43;2.60;;;;;;;8.89;67.38;99390.69;5027233;27;97690;-54
2023/12/11 04:37:13;;;;;;;13.00;3.10;;;;;;;8.92;67.40;99395.13;5027129;27;96796;-55
2023/12/11 04:39:39;;;;;;;11.33;2.80;;;;;;;8.95;67.29;99396.09;5026551;27;96821;-52
2023/12/11 04:42:04;;;;;;;14.13;3.50;;;;;;;8.95;67.12;99388.53;5028153;27;97229;-54
2023/12/11 04:44:29;;;;;;;11.60;3.27;;;;;;;8.96;67.21;99397.53;5025876;27;97105;-53
2023/12/11 04:46:55;;;;;;;11.40;3.20;;;;;;;8.97;67.18;99399.75;5025418;27;97366;-51
2023/12/11 04:49:20;;;;;;;13.30;3.03;;;;;;;8.97;67.22;99410.06;5018591;27;97601;-52
2023/12/11 04:51:46;;;;;;;13.73;3.10;;;;;;;8.98;66.91;99397.75;5028701;27;97254;-54
2023/12/11 04:54:20;;;;;;;12.87;3.27;;;;;;;8.97;66.87;99397.00;5025142;27;97162;-53
2023/12/11 04:56:45;;;;;;;14.57;2.60;;;;;;;8.93;66.95;99393.09;5024588;27;97405;-54
2023/12/11 04:59:11;;;;;;;7.83;2.73;;;;;;;8.88;67.11;99402.25;5027106;27;96776;-53
2023/12/11 05:01:36;;;;;;;11.97;3.03;;;;;;;8.87;67.06;99406.28;5026628;27;97468;-53
2023/12/11 05:04:01;;;;;;;11.80;2.90;;;;;;;8.84;67.41;99394.28;5025020;27;97212;-54
2023/12/11 05:06:27;;;;;;;18.63;3.27;;;;;;;8.84;67.46;99394.28;5020927;27;96972;-52
2023/12/11 05:08:52;;;;;;;8.23;3.17;;;;;;;8.84;67.40;99388.06;5026907;27;96950;-52
2023/12/11 05:11:17;;;;;;;13.30;3.50;;;;;;;8.89;67.56;99389.94;5027260;27;97250;-53
2023/12/11 05:13:43;;;;;;;10.57;2.50;;;;;;;8.89;67.38;99376.88;5023469;27;97625;-53
2023/12/11 05:16:08;;;;;;;14.67;3.40;;;;;;;8.90;67.36;99394.19;5026768;27;98303;-53
2023/12/11 05:18:34;;;;;;;11.53;2.60;;;;;;;8.85;67.46;99390.25;5025816;27;96922;-52
2023/12/11 05:21:05;;;;;;;8.03;2.93;;;;;;;8.84;67.36;99390.81;5026870;27;97199;-52
2023/12/11 05:23:30;;;;;;;17.00;3.20;;;;;;;8.81;67.50;99392.63;5024020;27;97415;-53
2023/12/11 05:25:56;;;;;;;10.87;3.20;;;;;;;8.81;67.58;99384.34;5027558;27;96933;-54
2023/12/11 05:28:21;;;;;;;13.70;3.40;;;;;;;8.81;67.47;99389.84;5027029;27;97126;-54
2023/12/11 05:30:47;;;;;;;11.70;2.90;;;;;;;8.81;67.63;99375.31;5029090;27;97121;-56
2023/12/11 05:33:12;;;;;;;6.60;2.27;;;;;;;8.82;67.51;99366.50;5025362;27;97325;-55
2023/12/11 05:35:38;;;;;;;14.73;3.20;;;;;;;8.84;67.67;99366.00;5025966;27;97100;-56
2023/12/11 05:38:03;;;;;;;14.23;2.90;;;;;;;8.84;67.67;99352.19;5031688;27;97260;-55
2023/12/11 05:40:28;;;;;;;12.53;2.60;;;;;;;8.85;67.65;99348.91;5029772;27;96836;-55
2023/12/11 05:42:54;;;;;;;11.37;3.20;;;;;;;8.86;67.41;99355.16;5027629;27;97712;-55
2023/12/11 05:45:19;;;;;;;7.10;2.27;;;;;;;8.85;67.49;99356.41;5029363;27;97791;-56
2023/12/11 05:47:45;;;;;;;6.63;2.73;;;;;;;8.86;67.49;99357.91;5033283;27;97294;-55
2023/12/11 05:50:11;;;;;;;10.43;2.37;;;;;;;8.82;67.54;99368.53;5030638;27;97091;-55
2023/12/11 05:52:36;;;;;;;14.50;2.93;;;;;;;8.78;67.52;99368.84;5028326;27;98745;-55
2023/12/11 05:55:01;;;;;;;6.90;2.30;;;;;;;8.75;67.58;99360.91;5035035;27;97419;-55
2023/12/11 05:57:27;;;;;;;7.97;2.40;;;;;;;8.75;67.51;99361.66;5029651;27;96771;-55
2023/12/11 05:59:52;;;;;;;12.00;2.80;;;;;;;8.74;67.41;99354.66;5034940;27;96806;-54
2023/12/11 06:02:17;;;;;;;7.53;3.50;;;;;;;8.73;67.57;99355.22;5030330;27;97437;-54
2023/12/11 06:04:43;;;;;;;15.20;3.00;;;;;;;8.72;67.49;99354.47;5030064;27;97565;-55
2023/12/11 06:07:08;;;;;;;10.90;2.67;;;;;;;8.71;67.72;99358.47;5033410;27;97146;-54
2023/12/11 06:09:33;;;;;;;9.50;2.70;;;;;;;8.70;67.62;99348.75;5028703;27;97023;-54
2023/12/11 06:11:59;;;;;;;10.13;2.87;;;;;;;8.68;67.51;99351.28;5029274;27;97700;-54
2023/12/11 06:14:24;;;;;;;13.63;3.20;;;;;;;8.67;67.64;99352.56;5031339;27;97118;-54
2023/12/11 06:16:50;;;;;;;14.53;3.10;;;;;;;8.66;67.86;99353.09;5031909;27;97239;-54
2023/12/11 06:19:15;;;;;;;14.40;3.57;;;;;;;8.67;67.93;99354.56;5027832;27;96918;-54
2023/12/11 06:21:41;;;;;;;15.87;3.10;;;;;;;8.69;67.96;99349.28;5030793;27;98457;-54
2023/12/11 06:24:07;;;;;;;14.60;3.87;;;;;;;8.69;67.74;99349.28;5028928;27;97105;-55
2023/12/11 06:26:36;;;;;;;18.83;3.60;;;;;;;8.69;67.64;99357.56;5028923;27;97137;-54
2023/12/11 06:29:02;;;;;;;17.67;3.50;;;;;;;8.67;67.93;99349.78;5029319;27;96998;-54
2023/12/11 06:31:28;;;;;;;13.70;3.70;;;;;;;8.70;68.10;99348.75;5027376;27;96890;-55
2023/12/11 06:33:54;;;;;;;17.10;3.70;;;;;;;8.72;68.01;99361.97;5029845;27;96850;-54
2023/12/11 06:36:21;;;;;;;13.17;3.50;;;;;;;8.74;67.96;99360.19;5030310;27;97393;-56
2023/12/11 06:38:48;;;;;;;16.30;3.70;;;;;;;8.72;68.01;99348.19;5028407;27;97305;-54
2023/12/11 06:41:13;;;;;;;13.87;3.90;;;;;;;8.71;67.95;99350.19;5029903;27;97663;-54
2023/12/11 06:43:39;;;;;;;12.00;3.30;;;;;;;8.68;68.04;99345.03;5028299;27;97389;-54
2023/12/11 06:46:04;;;;;;;17.37;3.60;;;;;;;8.65;68.14;99346.84;5026195;27;96959;-54
2023/12/11 06:48:30;;;;;;;15.77;2.93;;;;;;;8.66;68.09;99347.59;5009248;27;96906;-54
2023/12/11 06:50:56;;;;;;;15.00;3.17;;;;;;;8.65;68.25;99348.84;5028390;27;97006;-55
2023/12/11 06:53:22;;;;;;;13.40;3.10;;;;;;;8.63;68.29;99341.13;5029468;27;97013;-54
2023/12/11 06:55:47;;;;;;;23.30;4.00;;;;;;;8.62;68.31;99347.19;5032595;27;97104;-54
2023/12/11 06:58:13;;;;;;;13.73;3.17;;;;;;;8.63;68.28;99348.63;5030901;27;96932;-54
2023/12/11 07:00:38;;;;;;;13.23;3.37;;;;;;;8.59;68.54;99337.19;5030796;27;97248;-53
2023/12/11 07:03:03;;;;;;;11.93;2.47;;;;;;;8.57;68.65;99340.50;5030861;27;97554;-54
2023/12/11 07:05:29;;;;;;;16.37;3.30;;;;;;;8.59;68.43;99335.19;5029793;27;96771;-54
2023/12/11 07:07:54;;;;;;;14.07;2.77;;;;;;;8.59;68.46;99345.47;5028554;27;97131;-54
2023/12/11 07:10:19;;;;;;;20.53;2.57;;;;;;;8.59;68.53;99335.19;5031274;27;97357;-53
2023/12/11 07:12:47;;;;;;;10.93;2.30;;;;;;;8.59;68.79;99331.69;5027873;27;97175;-54
2023/12/11 07:15:12;;;;;;;11.93;2.13;;;;;;;8.59;68.71;99334.44;5030733;27;97043;-54
2023/12/11 07:17:38;;;;;;;10.60;2.20;;;;;;;8.61;68.74;99329.88;5026640;27;96609;-55
2023/12/11 07:20:05;;;;;;;13.90;2.40;;;;;;;8.59;68.59;99332.44;5028643;27;98571;-54
2023/12/11 07:22:33;;;;;;;9.70;2.50;;;;;;;8.58;68.91;99330.94;5026923;27;97640;-54
2023/12/11 07:24:58;;;;;;;4.63;1.77;;;;;;;8.58;68.63;99330.22;5027922;27;97194;-55
2023/12/11 07:27:24;;;;;;;7.93;2.40;;;;;;;8.58;68.68;99333.69;5028881;27;96741;-55
2023/12/11 07:29:49;;;;;;;8.87;2.53;;;;;;;8.60;68.58;99327.69;5008140;27;99412;-54
2023/12/11 07:32:14;;;;;;;10.10;2.70;;;;;;;8.60;68.67;99333.91;5027546;27;97154;-53
2023/12/11 07:34:42;;;;;;;10.40;2.20;;;;;;;8.58;68.76;99333.69;5028367;27;97091;-54
2023/12/11 07:37:08;;;;;;;7.87;2.30;;;;;;;8.60;68.67;99341.44;5026639;27;96872;-54
2023/12/11 07:39:33;;;;;;;10.27;2.10;;;;;;;8.59;68.82;99337.94;5029879;27;97495;-54
2023/12/11 07:41:59;;;;;;;7.30;2.83;;;;;;;8.63;68.56;99351.41;5028413;27;97292;-54
2023/12/11 07:44:24;;;;;;;14.53;2.27;;;;;;;8.65;68.56;99355.09;5032028;27;96926;-54
2023/12/11 07:46:50;;;;;;;13.37;2.20;;;;;;;8.64;68.61;99350.13;5029111;27;96955;-54
2023/12/11 07:49:15;;;;;;;7.33;1.87;;;;;;;8.65;68.56;99346.09;5028139;27;96959;-54
2023/12/11 07:51:40;;;;;;;12.00;2.20;;;;;;;8.66;68.60;99340.06;5025980;27;97212;-54
2023/12/11 07:54:06;;;;;;;12.10;2.17;;;;;;;8.67;68.66;99340.78;5028188;27;97404;-53
2023/12/11 07:56:32;;;;;;;5.77;1.97;;;;;;;8.66;68.46;99353.09;5029827;27;97247;-54
2023/12/11 07:58:57;;;;;;;5.43;2.13;;;;;;;8.68;68.66;99339.50;5031801;27;97642;-53
2023/12/11 08:01:23;;;;;;;12.83;2.10;;;;;;;8.68;68.47;99342.28;5027975;27;96762;-54
2023/12/11 08:03:48;;;;;;;7.77;1.80;;;;;;;8.66;68.60;99331.03;5028507;27;97171;-54
2023/12/11 08:06:14;;;;;;;6.77;2.23;;;;;;;8.69;68.62;99341.00;5029672;27;96788;-54
2023/12/11 08:08:45;;;;;;;13.13;2.03;;;;;;;8.70;68.63;99348.00;5031084;27;97794;-54
2023/12/11 08:11:19;;;;;;;3.30;1.60;;;;;;;8.68;68.72;99334.00;5026486;27;96975;-54
2023/12/11 08:13:44;;;;;;;5.80;1.80;;;;;;;8.69;68.56;99341.00;5026188;27;97293;-54
2023/12/11 08:16:11;;;;;;;10.33;2.00;;;;;;;8.70;68.60;99334.94;5031897;27;96620;-54
2023/12/11 08:18:36;;;;;;;21.13;2.27;;;;;;;8.75;68.53;99341.63;5030166;27;97249;-55
2023/12/11 08:21:03;;;;;;;8.37;1.90;;;;;;;8.77;68.54;99339.06;5027419;27;97088;-54
2023/12/11 08:23:29;;;;;;;4.57;1.50;;;;;;;8.78;68.45;99346.78;5029565;27;97132;-54
2023/12/11 08:25:54;;;;;;;5.77;1.77;;;;;;;8.80;68.43;99340.72;5033264;27;97132;-54
2023/12/11 08:28:20;;;;;;;7.80;1.87;;;;;;;8.83;68.66;99339.69;5030480;27;97273;-54
2023/12/11 08:30:45;;;;;;;5.27;1.50;;;;;;;8.86;68.38;99330.34;5029395;27;97079;-54
2023/12/11 08:33:12;;;;;;;12.80;2.23;;;;;;;8.87;68.62;99335.31;5025922;27;96745;-53
2023/12/11 08:35:38;;;;;;;8.87;2.53;;;;;;;8.87;68.49;99331.81;5030948;27;97046;-54
2023/12/11 08:38:03;;;;;;;6.17;1.50;;;;;;;8.90;68.36;99341.78;5028523;27;97697;-54
2023/12/11 08:40:28;;;;;;;4.50;1.10;;;;;;;8.93;68.54;99333.16;5027728;27;97207;-53
2023/12/11 08:42:54;;;;;;;6.83;1.77;;;;;;;8.94;68.41;99329.13;5027133;27;96578;-54
2023/12/11 08:45:19;;;;;;;3.70;1.33;;;;;;;8.97;68.40;99333.56;5026126;27;97164;-53
2023/12/11 08:47:44;;;;;;;9.37;2.37;;;;;;;8.95;68.25;99327.84;5028070;27;97057;-53
2023/12/11 08:50:11;;;;;;;5.30;1.80;;;;;;;8.94;68.48;99337.41;5028973;27;96563;-53
2023/12/11 08:52:38;;;;;;;7.90;2.03;;;;;;;8.94;68.27;99333.91;5028567;27;97008;-53
2023/12/11 08:55:04;;;;;;;7.07;1.90;;;;;;;8.91;68.60;99335.72;5028614;27;97002;-53
2023/12/11 08:57:29;;;;;;;5.87;1.80;;;;;;;8.96;68.55;99331.34;5027239;27;97026;-53
2023/12/11 08:59:54;;;;;;;10.50;1.60;;;;;;;9.00;68.50;99329.75;5028303;27;97174;-53
2023/12/11 09:02:20;;;;;;;4.40;1.70;;;;;;;9.02;68.67;99323.69;5028688;27;97211;-54
2023/12/11 09:04:45;;;;;;;8.57;2.30;;;;;;;9.07;68.44;99326.31;5027448;27;97261;-53
2023/12/11 09:07:11;;;;;;;7.97;1.87;;;;;;;9.12;68.35;99322.66;5026482;27;97064;-54
2023/12/11 09:09:37;;;;;;;5.67;2.00;;;;;;;9.13;68.37;99318.66;5028552;27;97375;-53
2023/12/11 09:12:03;;;;;;;5.77;1.70;;;;;;;9.15;68.53;99324.34;5029982;27;97044;-53
2023/12/11 09:14:29;;;;;;;12.33;2.50;;;;;;;9.20;68.56;99323.50;5033451;27;97001;-53
2023/12/11 09:16:54;;;;;;;7.00;2.20;;;;;;;9.25;68.48;99314.31;5031705;27;97474;-53
2023/12/11 09:19:19;;;;;;;8.33;2.30;;;;;;;9.32;68.26;99319.16;5033301;27;97227;-53
2023/12/11 09:21:45;;;;;;;6.77;2.27;;;;;;;9.39;68.38;99325.31;5029886;27;97159;-53
2023/12/11 09:24:12;;;;;;;6.20;1.40;;;;;;;9.45;68.26;99334.19;5030980;27;97255;-53
2023/12/11 09:26:37;;;;;;;7.90;2.17;;;;;;;9.47;68.17;99324.09;5038111;22;97263;-56
2023/12/11 09:29:03;;;;;;;9.17;2.20;;;;;;;9.48;68.04;99330.31;5007565;28;97193;-56
2023/12/11 09:31:28;;;;;;;10.00;1.90;;;;;;;9.48;68.12;99325.56;5005748;28;99418;-56
2023/12/11 09:33:53;;;;;;;10.73;2.50;;;;;;;9.50;68.23;99322.25;5007047;28;98230;-56
2023/12/11 09:36:19;;;;;;;6.67;2.20;;;;;;;9.54;68.39;99319.91;4996221;28;97814;-56
2023/12/11 09:38:44;;;;;;;7.93;2.10;;;;;;;9.60;68.25;99321.25;4987889;28;97784;-56
2023/12/11 09:41:10;;;;;;;12.90;2.40;;;;;;;9.64;68.29;99329.94;4988046;28;97154;-56
2023/12/11 09:43:36;;;;;;;7.60;1.87;;;;;;;9.64;68.16;99324.41;4986932;28;97265;-56
2023/12/11 09:46:06;;;;;;;7.90;1.73;;;;;;;9.64;68.13;99327.19;4990510;28;98637;-56
2023/12/11 09:48:33;;;;;;;8.97;1.60;;;;;;;9.66;68.18;99324.63;4987536;28;98535;-56
2023/12/11 09:50:58;;;;;;;8.17;2.30;;;;;;;9.67;68.06;99326.06;4986500;28;97410;-56
2023/12/11 09:53:25;;;;;;;5.93;1.90;;;;;;;9.65;67.96;99323.13;4989102;28;97066;-55
2023/12/11 09:55:50;;;;;;;6.33;1.80;;;;;;;9.63;67.91;99317.41;4989142;28;97305;-56
2023/12/11 09:58:16;;;;;;;9.27;2.30;;;;;;;9.56;68.11;99311.84;4991620;28;96678;-56
2023/12/11 10:00:42;;;;;;;7.30;2.23;;;;;;;9.50;68.23;99314.69;4989078;28;97096;-56
2023/12/11 10:03:08;;;;;;;7.13;1.90;;;;;;;9.53;68.31;99321.91;4992998;28;97020;-56
2023/12/11 10:05:35;;;;;;;12.00;2.53;;;;;;;9.51;68.07;99312.69;4991780;28;97294;-56
2023/12/11 10:08:01;;;;;;;9.30;1.97;;;;;;;9.52;68.23;99308.66;4993686;28;99148;-56
2023/12/11 10:10:33;;;;;;;5.30;1.57;;;;;;;9.53;68.31;99321.91;4990946;28;97081;-56
2023/12/11 10:12:59;;;;;;;6.93;1.80;;;;;;;9.52;67.94;99305.91;4989372;28;96928;-56
2023/12/11 10:15:30;;;;;;;7.97;1.70;;;;;;;9.49;68.09;99315.25;4987686;28;97029;-56
2023/12/11 10:18:02;;;;;;;8.53;1.83;;;;;;;9.46;68.12;99305.28;4990350;28;97600;-56
2023/12/11 10:20:27;;;;;;;9.03;2.20;;;;;;;9.45;68.26;99310.09;4991588;28;96663;-56
2023/12/11 10:22:53;;;;;;;4.40;2.27;;;;;;;9.46;68.10;99311.56;4987905;28;96884;-56
2023/12/11 10:25:26;;;;;;;10.40;2.27;;;;;;;9.42;68.14;99311.16;4989906;28;97268;-57
2023/12/11 10:28:10;;;;;;;7.40;2.00;;;;;;;9.38;68.37;99304.50;4987099;28;97530;-57
2023/12/11 10:30:53;;;;;;;7.23;2.10;;;;;;;9.37;68.06;99298.22;4988658;28;96756;-57
2023/12/11 10:33:19;;;;;;;9.13;2.57;;;;;;;9.35;68.19;99291.75;4987181;28;97466;-57
2023/12/11 10:35:46;;;;;;;9.00;2.47;;;;;;;9.29;68.42;99287.16;4987856;28;97392;-57
2023/12/11 10:38:19;;;;;;;4.67;2.30;;;;;;;9.30;68.47;99287.88;4991819;28;97456;-57
2023/12/11 10:40:45;;;;;;;9.10;2.10;;;;;;;9.32;68.53;99287.34;4989885;28;97354;-57
2023/12/11 10:43:10;;;;;;;9.13;2.47;;;;;;;9.29;68.54;99278.13;4986869;28;97301;-57
2023/12/11 10:45:36;;;;;;;7.43;2.20;;;;;;;9.30;68.48;99277.56;4990512;28;97833;-57
2023/12/11 10:48:03;;;;;;;14.70;2.43;;;;;;;9.31;68.53;99272.81;4990960;28;97644;-58
2023/12/11 10:50:28;;;;;;;8.00;2.43;;;;;;;9.32;68.46;99275.00;4993205;28;97000;-58
2023/12/11 10:52:54;;;;;;;10.13;2.80;;;;;;;9.32;68.44;99269.50;4987383;28;97567;-58
2023/12/11 10:55:20;;;;;;;11.80;2.33;;;;;;;9.35;68.39;99261.41;4992540;28;97296;-58
2023/12/11 10:57:46;;;;;;;5.23;2.20;;;;;;;9.36;68.45;99257.38;4991928;28;97158;-58
2023/12/11 11:00:14;;;;;;;5.37;2.03;;;;;;;9.37;68.33;99259.59;4990190;28;96801;-58
2023/12/11 11:02:45;;;;;;;8.67;2.90;;;;;;;9.37;68.31;99259.59;4988694;28;97379;-58
2023/12/11 11:05:12;;;;;;;11.00;2.40;;;;;;;9.36;68.46;99249.84;4986102;28;98661;-58
2023/12/11 11:08:01;;;;;;;7.67;2.40;;;;;;;9.34;68.46;99252.41;4989273;28;97138;-58
2023/12/11 11:10:34;;;;;;;8.90;2.10;;;;;;;9.29;68.60;99259.56;4991298;28;97139;-58
2023/12/11 11:13:02;;;;;;;8.37;2.30;;;;;;;9.30;68.56;99249.22;4986738;28;96613;-59
2023/12/11 11:15:27;;;;;;;6.80;2.13;;;;;;;9.24;68.51;99254.16;4989173;28;97312;-58
2023/12/11 11:18:00;;;;;;;8.00;2.40;;;;;;;9.24;68.64;99251.41;4968004;28;97525;-58
2023/12/11 11:20:30;;;;;;;6.10;2.47;;;;;;;9.22;68.55;99242.94;4989351;28;96949;-57
2023/12/11 11:23:18;;;;;;;3.37;2.00;;;;;;;9.21;68.76;99244.94;4986644;28;100573;-58
2023/12/11 11:25:53;;;;;;;5.83;2.33;;;;;;;9.23;68.59;99247.91;4987810;28;97189;-58
2023/12/11 11:28:41;;;;;;;9.47;2.40;;;;;;;9.21;68.91;99253.22;4991634;28;97049;-57
2023/12/11 11:31:11;;;;;;;5.50;2.10;;;;;;;9.24;68.90;99254.16;4990333;28;96672;-57
2023/12/11 11:33:47;;;;;;;6.20;2.17;;;;;;;9.25;69.04;99247.38;4987445;28;98122;-57